Latest Weather Observations for Marree Airport

IDS60801

Issued at 9:21 am CDT Sunday 26 January 2020 (issued every 10 minutes, with the page automatically refreshed every 10 minutes)

About weather observations | Map of weather stations | Latest weather observations for SA | Other Formats
Station Details ID: 017126 Name: MARREE AERO Lat: -29.66 Lon: 138.07 Height: 50.0 m
Data from the previous 72 hours. | See also: Recent months at Marree Airport
Date/Time
CDT
Temp
°C
App
Temp
°C
Dew
Point
°C
Rel
Hum
%
Delta-T
°C
Wind Press
QNH
hPa
Press
MSL
hPa
Rain since
9am
mm
Dir  Spd
km/h
Gust
km/h
Spd
kts
Gust
kts
26/09:00am 28.0 23.1 5.0 23 11.8 SSE 20 24 11 13 1013.6 1013.2 0.0
26/08:30am 26.6 21.8 5.5 26 10.9 S 20 26 11 14 1013.5 1013.1 0.0
26/08:00am 25.5 21.3 5.7 28 10.2 SSE 17 20 9 11 1013.1 1012.7 0.0
26/07:30am 23.8 19.5 5.2 30 9.4 S 17 19 9 10 1012.7 1012.3 0.0
26/07:00am 22.6 18.3 5.1 32 8.7 S 17 20 9 11 1012.3 1011.9 0.0
26/06:30am 21.7 17.6 4.3 32 8.5 S 15 19 8 10 1012.0 1011.6 0.0
26/06:00am 21.7 16.7 3.4 30 8.8 S 19 20 10 11 1011.6 1011.2 0.0
26/05:30am 21.3 15.9 2.6 29 8.8 SSE 20 24 11 13 1011.5 1011.1 0.0
26/05:00am 22.0 18.0 2.7 28 9.2 S 13 15 7 8 1011.0 1010.6 0.0
26/04:30am 21.7 17.2 1.9 27 9.2 S 15 15 8 8 1011.0 1010.6 0.0
26/04:00am 22.0 17.3 1.1 25 9.6 SSE 15 17 8 9 1011.0 1010.6 0.0
26/03:30am 23.2 17.9 2.1 25 10.0 S 19 20 10 11 1010.9 1010.5 0.0
26/03:00am 23.1 18.1 1.5 24 10.1 SSE 17 19 9 10 1011.0 1010.6 0.0
26/02:30am 23.6 19.0 1.3 23 10.4 SSE 15 15 8 8 1011.1 1010.7 0.0
26/02:00am 23.5 18.8 1.2 23 10.4 ESE 15 17 8 9 1011.6 1011.2 0.0
26/01:30am 24.1 20.2 1.1 22 10.8 SSE 11 13 6 7 1011.7 1011.3 0.0
26/01:00am 24.8 20.5 1.0 21 11.2 S 13 15 7 8 1011.8 1011.4 0.0
26/12:30am 26.1 21.5 1.4 20 11.8 S 15 17 8 9 1011.7 1011.3 0.0
26/12:00am 27.4 22.5 1.8 19 12.4 S 17 20 9 11 1011.8 1011.4 0.0
 
Date/Time
CDT
Temp
°C
App
Temp
°C
Dew
Point
°C
Rel
Hum
%
Delta-T
°C
Wind Press
QNH
hPa
Press
MSL
hPa
Rain since
9am
mm
Dir  Spd
km/h
Gust
km/h
Spd
kts
Gust
kts
25/11:30pm 28.3 23.6 0.9 17 13.2 S 15 19 8 10 1011.6 1011.2 0.0
25/11:00pm 29.5 23.9 1.1 16 13.8 S 20 22 11 12 1011.5 1011.1 0.0
25/10:30pm 30.4 24.5 1.8 16 14.2 SW 22 26 12 14 1011.3 1010.9 0.0
25/10:00pm 30.8 25.5 2.1 16 14.3 SSW 19 24 10 13 1011.3 1010.9 0.0
25/09:30pm 31.3 25.8 1.6 15 14.7 SSW 20 24 11 13 1011.2 1010.8 0.0
25/09:00pm 31.9 25.5 1.1 14 15.2 SSW 24 32 13 17 1011.1 1010.7 0.0
25/08:30pm 32.7 25.1 0.7 13 15.8 SSW 30 35 16 19 1010.8 1010.4 0.0
25/08:00pm 33.7 26.1 0.4 12 16.4 SSW 30 39 16 21 1010.5 1010.1 0.0
25/07:30pm 34.6 27.5 1.1 12 16.8 S 28 35 15 19 1010.2 1009.8 0.0
25/07:00pm 35.6 28.8 0.6 11 17.5 S 26 41 14 22 1009.8 1009.4 0.0
25/06:30pm 36.1 30.1 1.0 11 17.8 SSW 22 33 12 18 1009.6 1009.2 0.0
25/06:00pm 36.0 30.9 0.9 11 17.8 SSE 17 32 9 17 1009.6 1009.2 0.0
25/05:30pm 35.6 30.5 0.6 11 17.6 SSE 17 26 9 14 1009.8 1009.4 0.0
25/05:00pm 36.1 31.4 1.0 11 17.8 SSW 15 24 8 13 1010.0 1009.6 0.0
25/04:30pm 35.5 30.6 1.8 12 17.2 SSE 17 28 9 15 1010.3 1009.9 0.0
25/04:00pm 35.4 30.5 1.7 12 17.2 S 17 35 9 19 1010.5 1010.1 0.0
25/03:30pm 35.7 31.9 1.9 12 17.3 SSW 11 26 6 14 1010.8 1010.4 0.0
25/03:00pm 35.2 31.2 2.6 13 16.8 S 13 26 7 14 1011.4 1011.0 0.0
25/02:30pm 33.6 30.1 3.4 15 15.7 E 11 19 6 10 1011.9 1011.5 0.0
25/02:00pm 33.5 30.3 3.3 15 15.6 SE 9 19 5 10 1012.5 1012.1 0.0
25/01:30pm 32.8 28.6 3.7 16 15.1 SSE 15 26 8 14 1013.0 1012.6 0.0
25/01:00pm 32.4 28.5 3.4 16 14.9 S 13 22 7 12 1013.7 1013.3 0.0
25/12:30pm 32.1 28.1 3.1 16 14.8 S 13 22 7 12 1014.0 1013.6 0.0
25/12:00pm 31.3 27.6 4.2 18 14.0 SSE 13 24 7 13 1014.2 1013.8 0.0
25/11:30am 30.2 26.7 3.3 18 13.6 ESE 11 22 6 12 1014.5 1014.1 0.0
25/11:00am 30.1 26.3 4.0 19 13.4 ESE 13 24 7 13 1014.6 1014.2 0.0
25/10:30am 29.4 25.5 3.4 19 13.1 ESE 13 20 7 11 1014.8 1014.4 0.0
25/10:00am 28.6 23.6 3.5 20 12.6 ESE 19 24 10 13 1014.9 1014.5 0.0
25/09:30am 27.4 22.3 3.2 21 12.0 SE 19 22 10 12 1015.0 1014.6 0.0
25/09:00am 24.8 20.7 2.3 23 10.8 SE 13 17 7 9 1015.0 1014.6 0.0
25/08:30am 23.0 18.9 2.5 26 9.7 SSE 13 15 7 8 1014.8 1014.4 0.0
25/08:00am 20.5 17.3 2.8 31 8.3 SSE 9 13 5 7 1014.4 1014.0 0.0
25/07:30am 19.4 15.1 3.2 34 7.6 SSE 15 15 8 8 1014.0 1013.6 0.0
25/07:00am 17.8 12.9 2.2 35 7.1 SSE 17 17 9 9 1013.6 1013.2 0.0
25/06:30am 17.4 13.2 1.8 35 7.0 SE 13 15 7 8 1013.5 1013.1 0.0
25/06:00am 17.2 13.0 1.6 35 7.0 SSE 13 15 7 8 1013.1 1012.7 0.0
25/05:30am 18.8 14.8 2.6 34 7.5 S 13 15 7 8 1013.0 1012.6 0.0
25/05:00am 19.2 15.2 2.6 33 7.7 S 13 15 7 8 1012.8 1012.4 0.0
25/04:30am 19.7 15.4 3.0 33 7.8 S 15 17 8 9 1012.8 1012.4 0.0
25/04:00am 20.8 16.5 3.5 32 8.3 S 15 17 8 9 1012.8 1012.4 0.0
25/03:30am 20.6 16.7 3.3 32 8.2 S 13 17 7 9 1013.0 1012.6 0.0
25/03:00am 20.8 16.5 3.5 32 8.3 SSE 15 19 8 10 1013.2 1012.8 0.0
25/02:30am 21.4 17.2 3.6 31 8.6 SSE 15 17 8 9 1013.3 1012.9 0.0
25/02:00am 21.9 17.0 4.0 31 8.7 SSE 19 24 10 13 1013.4 1013.0 0.0
25/01:30am 22.8 17.9 4.3 30 9.1 SSE 19 22 10 12 1013.4 1013.0 0.0
25/01:00am 23.6 18.8 4.5 29 9.5 S 19 22 10 12 1013.2 1012.8 0.0
25/12:30am 23.5 19.7 4.0 28 9.6 S 13 15 7 8 1013.4 1013.0 0.0
25/12:00am 24.2 20.4 4.0 27 10.0 S 13 13 7 7 1013.6 1013.2 0.0
 
Date/Time
CDT
Temp
°C
App
Temp
°C
Dew
Point
°C
Rel
Hum
%
Delta-T
°C
Wind Press
QNH
hPa
Press
MSL
hPa
Rain since
9am
mm
Dir  Spd
km/h
Gust
km/h
Spd
kts
Gust
kts
24/11:30pm 24.6 21.2 3.8 26 10.3 S 11 13 6 7 1013.5 1013.1 0.0
24/11:00pm 25.3 21.5 3.9 25 10.6 SSW 13 15 7 8 1013.5 1013.1 0.0
24/10:30pm 25.8 21.6 3.7 24 11.0 SSW 15 17 8 9 1013.3 1012.9 0.0
24/10:00pm 26.4 22.4 3.0 22 11.5 SSW 13 17 7 9 1013.2 1012.8 0.0
24/09:30pm 27.2 21.8 2.3 20 12.2 SSW 20 24 11 13 1012.7 1012.3 0.0
24/09:00pm 27.8 21.6 2.1 19 12.6 SSW 24 28 13 15 1012.4 1012.0 0.0
24/08:30pm 28.6 22.0 2.0 18 13.1 SSW 26 32 14 17 1011.9 1011.5 0.0
24/08:00pm 29.7 22.6 1.2 16 13.9 SSW 28 35 15 19 1011.4 1011.0 0.0
24/07:30pm 30.8 24.3 0.2 14 14.8 SSW 24 32 13 17 1011.2 1010.8 0.0
24/07:00pm 30.9 24.6 1.3 15 14.6 S 24 33 13 18 1010.9 1010.5 0.0
24/06:30pm 31.4 25.7 0.7 14 15.0 SSW 20 32 11 17 1010.8 1010.4 0.0
24/06:00pm 31.7 26.1 1.0 14 15.1 SSW 20 33 11 18 1010.7 1010.3 0.0
24/05:30pm 31.8 26.2 1.0 14 15.2 SSW 20 32 11 17 1010.8 1010.4 0.0
24/05:00pm 32.2 26.8 1.3 14 15.3 SW 19 30 10 16 1011.1 1010.7 0.0
24/04:30pm 31.0 27.3 2.3 16 14.4 S 11 22 6 12 1011.5 1011.1 0.0
24/04:00pm 30.9 27.3 3.0 17 14.1 SW 11 19 6 10 1011.9 1011.5 0.0
24/03:30pm 30.5 26.1 2.7 17 14.0 S 15 26 8 14 1012.4 1012.0 0.0
24/03:00pm 30.1 26.7 4.0 19 13.4 WSW 11 20 6 11 1012.8 1012.4 0.0
24/02:30pm 29.3 26.7 4.0 20 12.9 WNW 7 15 4 8 1013.3 1012.9 0.0
24/02:00pm 28.3 25.0 4.6 22 12.1 N 11 17 6 9 1013.7 1013.3 0.0
24/01:30pm 27.9 24.3 4.9 23 11.8 SW 13 20 7 11 1014.2 1013.8 0.0
24/01:00pm 28.0 24.2 5.6 24 11.7 SSW 15 22 8 12 1014.5 1014.1 0.0
24/12:30pm 26.3 23.5 5.3 26 10.8 SSW 9 20 5 11 1014.9 1014.5 0.0
24/12:00pm 26.1 22.7 5.7 27 10.5 SSE 13 20 7 11 1015.2 1014.8 0.0
24/11:30am 25.4 22.3 5.6 28 10.1 SSE 11 19 6 10 1015.3 1014.9 0.0
24/11:00am 24.2 20.7 5.5 30 9.5 SE 13 22 7 12 1015.3 1014.9 0.0
24/10:30am 23.5 18.7 4.9 30 9.3 SSE 19 28 10 15 1015.2 1014.8 0.0
24/10:00am 23.4 18.2 5.3 31 9.1 SSE 22 28 12 15 1015.2 1014.8 0.0
24/09:30am 22.4 16.1 5.8 34 8.4 SSE 28 35 15 19 1015.1 1014.7 0.0
24/09:00am 21.3 14.2 5.6 36 7.8 S 32 39 17 21 1014.9 1014.5 0.0
24/08:30am 20.7 13.1 5.9 38 7.4 S 35 43 19 23 1014.4 1014.0 0.0
24/08:00am 19.7 12.5 6.1 41 6.8 S 33 43 18 23 1014.1 1013.7 0.0
24/07:30am 18.8 11.8 6.0 43 6.3 S 32 41 17 22 1013.5 1013.1 0.0
24/07:00am 18.1 11.1 6.0 45 6.0 SSW 32 39 17 21 1013.0 1012.6 0.0
24/06:30am 18.0 11.7 5.9 45 5.9 S 28 33 15 18 1012.8 1012.4 0.0
24/06:00am 18.5 11.5 6.0 44 6.2 S 32 39 17 21 1012.3 1011.9 0.0
24/05:30am 18.7 13.0 6.5 45 6.1 SSW 26 32 14 17 1012.0 1011.6 0.0
24/05:00am 19.1 13.0 6.6 44 6.3 S 28 35 15 19 1011.7 1011.3 0.0
24/04:30am 19.7 13.5 6.1 41 6.8 SSW 28 33 15 18 1011.5 1011.1 0.0
24/04:00am 20.1 14.2 5.7 39 7.1 S 26 32 14 17 1011.2 1010.8 0.0
24/03:30am 20.6 15.0 5.4 37 7.5 S 24 32 13 17 1011.4 1011.0 0.0
24/03:00am 21.3 15.7 5.2 35 8.0 SSW 24 32 13 17 1011.3 1010.9 0.0
24/02:30am 21.6 15.3 5.9 36 7.9 S 28 33 15 18 1011.2 1010.8 0.0
24/02:00am 22.0 15.2 6.7 37 7.8 S 32 37 17 20 1011.0 1010.6 0.0
24/01:30am 22.3 15.0 7.3 38 7.8 SSW 35 44 19 24 1011.0 1010.6 0.0
24/01:00am 22.8 16.0 7.8 38 7.9 SSW 33 44 18 24 1010.9 1010.5 0.0
24/12:30am 23.1 14.5 8.0 38 8.0 SSW 43 52 23 28 1010.5 1010.1 0.0
24/12:00am 23.6 15.5 8.8 39 8.0 SSW 41 48 22 26 1010.2 1009.8 0.0
 
Date/Time
CDT
Temp
°C
App
Temp
°C
Dew
Point
°C
Rel
Hum
%
Delta-T
°C
Wind Press
QNH
hPa
Press
MSL
hPa
Rain since
9am
mm
Dir  Spd
km/h
Gust
km/h
Spd
kts
Gust
kts
23/11:30pm 24.1 15.6 9.3 39 8.0 SSW 44 57 24 31 1009.9 1009.5 0.0
23/11:00pm 24.9 16.7 9.6 38 8.4 SSW 43 56 23 30 1009.6 1009.2 0.0
23/10:30pm 25.9 17.1 9.7 36 9.0 SSW 46 57 25 31 1009.0 1008.7 0.0
23/10:26pm 26.1 18.0 9.9 36 9.0 SSW 43 57 23 31 1009.0 1008.7 0.0
23/10:00pm 27.5 21.1 9.3 32 10.1 SSW 33 39 18 21 1008.3 1008.0 0.0
23/09:30pm 28.1 23.3 8.9 30 10.6 SW 24 32 13 17 1007.8 1007.5 0.0
23/09:00pm 28.6 23.8 8.8 29 10.9 SSW 24 32 13 17 1007.4 1007.1 0.0
23/08:30pm 29.0 24.0 8.1 27 11.4 SW 24 32 13 17 1007.0 1006.7 0.0
23/08:00pm 29.7 23.2 8.2 26 11.8 SW 32 41 17 22 1006.4 1006.1 0.0
23/07:30pm 30.4 23.9 8.2 25 12.3 SW 32 43 17 23 1005.9 1005.6 0.0
23/07:00pm 30.9 24.7 8.0 24 12.6 WSW 30 41 16 22 1005.7 1005.4 0.0
23/06:30pm 31.7 26.3 8.0 23 13.1 SW 26 39 14 21 1005.4 1005.1 0.0
23/06:00pm 31.4 25.0 8.4 24 12.8 SW 32 43 17 23 1005.1 1004.8 0.0
23/05:30pm 32.2 26.0 7.8 22 13.5 WSW 30 43 16 23 1005.0 1004.7 0.0
23/05:00pm 32.6 26.1 8.1 22 13.6 SW 32 39 17 21 1005.0 1004.7 0.0
23/04:30pm 32.2 26.0 7.8 22 13.5 SW 30 52 16 28 1004.9 1004.6 0.0
23/04:20pm 32.7 26.6 8.2 22 13.7 SW 30 48 16 26 1004.9 1004.6 0.0
23/04:00pm 32.8 27.9 8.3 22 13.7 SW 24 41 13 22 1004.8 1004.5 0.0
23/03:30pm 32.4 26.2 8.0 22 13.6 WSW 30 43 16 23 1004.9 1004.6 0.0
23/03:16pm 31.9 26.2 8.2 23 13.2 WSW 28 46 15 25 1005.0 1004.7 0.0
23/03:00pm 31.8 26.0 8.1 23 13.2 SW 28 39 15 21 1005.1 1004.8 0.0
23/02:30pm 31.0 25.2 8.1 24 12.7 WSW 28 46 15 25 1005.5 1005.2 0.0
23/02:00pm 30.0 23.9 8.4 26 11.9 WSW 30 48 16 26 1005.9 1005.6 0.0
23/01:53pm 30.4 24.8 8.7 26 12.1 WSW 28 48 15 26 1005.8 1005.5 0.0
23/01:30pm 29.7 24.6 9.3 28 11.4 SW 26 44 14 24 1006.2 1005.9 0.0
23/01:00pm 29.2 24.4 8.8 28 11.3 SW 24 37 13 20 1006.6 1006.3 0.0
23/12:30pm 27.8 23.4 9.1 31 10.3 SW 22 39 12 21 1006.8 1006.5 0.0
23/12:00pm 28.0 22.8 8.8 30 10.6 SW 26 41 14 22 1006.8 1006.5 0.0
23/11:30am 27.7 22.2 9.0 31 10.3 SW 28 37 15 20 1006.8 1006.5 0.0
23/11:00am 26.6 20.2 8.6 32 9.8 SW 32 43 17 23 1006.7 1006.4 0.0
23/10:30am 25.4 19.0 8.4 34 9.2 SW 32 41 17 22 1006.8 1006.5 0.0
23/10:00am 25.4 19.0 8.4 34 9.2 SSW 32 41 17 22 1006.6 1006.3 0.0
23/09:30am 24.4 16.9 8.0 35 8.7 SW 37 46 20 25 1006.7 1006.4 0.0

Other formats

Comma delimited format used in spreadsheet applications
http://www.bom.gov.au/fwo/IDS60801/IDS60801.95480.axf

JavaScript Object Notation format (JSON) in row-major order
http://www.bom.gov.au/fwo/IDS60801/IDS60801.95480.json

Data quality

Most of these data are generated automatically and are frequently updated. Quality checks on data are not normally performed. It is possible for incorrect values to appear. Refer to information at About Latest Weather Observations and please check the disclaimer before using these data.